Time;durP1;ratioP1;P1;durP2;ratioP2;P2;SDS_P1;SDS_P2;PMS_P1;PMS_P2;Temp;Humidity;BMP_temperature;BMP_pressure;BME280_temperature;BME280_humidity;BME280_pressure;Samples;Min_cycle;Max_cycle;Signal;HPM_P1;HPM_P2
2022/03/12 00:01:26;;;;;;;19.10;10.02;;;2.30;79.00;;;;;;5007022;28;20084;-84
2022/03/12 00:03:54;;;;;;;18.83;9.85;;;2.30;78.70;;;;;;4993527;28;20068;-82
2022/03/12 00:06:22;;;;;;;17.92;9.13;;;2.30;78.90;;;;;;4991516;28;20041;-84
2022/03/12 00:08:51;;;;;;;17.88;8.48;;;2.20;79.20;;;;;;4991450;28;20437;-84
2022/03/12 00:11:29;;;;;;;18.30;9.38;;;2.20;79.20;;;;;;4991777;28;20087;-83
2022/03/12 00:14:02;;;;;;;22.02;8.98;;;2.20;79.20;;;;;;4991661;28;20061;-83
2022/03/12 00:16:28;;;;;;;16.42;8.85;;;2.20;78.90;;;;;;5010559;28;20065;-84
2022/03/12 00:18:56;;;;;;;19.73;8.77;;;2.20;78.90;;;;;;5028287;28;20033;-82
2022/03/12 00:21:35;;;;;;;20.08;9.18;;;2.20;79.30;;;;;;5010485;28;20103;-85
2022/03/12 00:24:02;;;;;;;20.70;10.23;;;2.20;79.50;;;;;;5011192;28;20437;-83
2022/03/12 00:26:31;;;;;;;26.63;10.35;;;2.10;79.50;;;;;;5011211;28;20037;-83
2022/03/12 00:28:57;;;;;;;18.83;8.90;;;2.10;79.20;;;;;;5011084;28;20030;-85
2022/03/12 00:31:24;;;;;;;17.73;9.02;;;2.10;79.40;;;;;;4994892;28;20037;-82
2022/03/12 00:33:51;;;;;;;22.52;10.32;;;2.00;79.70;;;;;;4995115;28;20441;-80
2022/03/12 00:36:18;;;;;;;18.90;8.80;;;2.00;79.70;;;;;;5010780;28;20026;-84
2022/03/12 00:38:45;;;;;;;21.23;9.00;;;2.00;79.80;;;;;;4994691;28;20033;-82
2022/03/12 00:41:12;;;;;;;18.48;8.63;;;2.00;79.70;;;;;;5027172;28;20041;-82
2022/03/12 00:43:39;;;;;;;23.20;9.52;;;2.00;79.60;;;;;;5026153;28;20057;-83
2022/03/12 00:46:05;;;;;;;21.48;8.90;;;2.00;79.20;;;;;;5009592;28;20718;-85
2022/03/12 00:48:34;;;;;;;23.58;9.40;;;2.00;79.40;;;;;;4994016;28;20128;-81
2022/03/12 00:51:00;;;;;;;20.88;9.20;;;2.10;79.20;;;;;;5013661;28;20033;-84
2022/03/12 00:53:26;;;;;;;24.38;9.43;;;2.00;79.10;;;;;;5031841;28;20040;-84
2022/03/12 00:55:52;;;;;;;20.58;10.13;;;2.00;79.80;;;;;;5014211;28;20033;-83
2022/03/12 00:58:20;;;;;;;21.65;9.68;;;1.90;79.70;;;;;;5013779;28;20037;-83
2022/03/12 01:00:46;;;;;;;20.27;9.63;;;1.90;79.80;;;;;;5013988;28;20044;-83
2022/03/12 01:03:12;;;;;;;15.57;8.95;;;1.90;79.70;;;;;;4981165;28;20030;-86
2022/03/12 01:05:49;;;;;;;19.50;9.40;;;1.90;79.40;;;;;;5014728;28;20037;-84
2022/03/12 01:08:16;;;;;;;18.80;9.35;;;1.90;80.00;;;;;;4991088;28;20025;-84
2022/03/12 01:10:44;;;;;;;19.20;8.23;;;1.90;79.70;;;;;;4997145;28;20036;-83
2022/03/12 01:13:11;;;;;;;17.10;9.15;;;1.90;79.70;;;;;;5013739;28;20043;-83
2022/03/12 01:15:38;;;;;;;22.65;9.43;;;1.90;80.00;;;;;;5031460;28;20033;-86
2022/03/12 01:18:04;;;;;;;23.30;10.23;;;1.90;79.40;;;;;;5013050;28;20502;-83
2022/03/12 01:20:29;;;;;;;24.33;10.18;;;1.90;80.10;;;;;;4997059;28;20076;-84
2022/03/12 01:22:55;;;;;;;19.35;9.63;;;1.80;80.20;;;;;;5012962;28;20060;-84
2022/03/12 01:25:21;;;;;;;17.58;9.90;;;1.80;80.30;;;;;;5012638;28;20718;-83
2022/03/12 01:27:47;;;;;;;21.45;9.73;;;1.80;80.20;;;;;;5013768;28;20056;-84
2022/03/12 01:30:13;;;;;;;22.35;10.07;;;1.70;81.00;;;;;;5013586;28;20044;-84
2022/03/12 01:32:39;;;;;;;22.05;9.57;;;1.70;81.50;;;;;;5011113;28;20040;-85
2022/03/12 01:35:06;;;;;;;18.65;9.80;;;1.60;80.50;;;;;;5009856;28;20943;-84
2022/03/12 01:37:32;;;;;;;18.33;9.73;;;1.60;80.80;;;;;;4985163;28;20052;-84
2022/03/12 01:40:00;;;;;;;22.80;9.70;;;1.60;81.00;;;;;;5014444;28;20057;-83
2022/03/12 01:42:27;;;;;;;22.10;10.15;;;1.60;81.00;;;;;;5031509;28;20084;-85
2022/03/12 01:44:53;;;;;;;18.55;9.63;;;1.60;81.20;;;;;;5031903;28;20044;-85
2022/03/12 01:47:20;;;;;;;19.17;9.48;;;1.60;81.00;;;;;;5018039;28;20037;-84
2022/03/12 01:49:48;;;;;;;20.02;9.13;;;1.50;81.00;;;;;;5036841;28;20038;-84
2022/03/12 01:52:14;;;;;;;21.40;9.45;;;1.50;81.00;;;;;;4988905;28;20374;-85
2022/03/12 01:54:41;;;;;;;19.23;9.02;;;1.50;81.30;;;;;;5005025;28;20038;-84
2022/03/12 01:57:09;;;;;;;23.85;9.25;;;1.50;81.90;;;;;;5011834;28;20525;-84
2022/03/12 01:59:38;;;;;;;30.42;9.75;;;1.40;81.60;;;;;;5013301;28;20017;-84
2022/03/12 02:02:08;;;;;;;20.75;9.70;;;1.40;82.10;;;;;;5049491;28;20282;-85
2022/03/12 02:04:36;;;;;;;17.90;9.50;;;1.50;81.90;;;;;;5008859;28;20018;-85
2022/03/12 02:07:02;;;;;;;19.05;9.40;;;1.40;82.20;;;;;;5037834;28;20069;-85
2022/03/12 02:09:28;;;;;;;17.60;9.30;;;1.40;82.30;;;;;;5038530;28;20014;-87
2022/03/12 02:11:54;;;;;;;23.02;10.80;;;1.40;82.50;;;;;;5054485;28;20041;-85
2022/03/12 02:14:24;;;;;;;20.58;9.80;;;1.40;82.30;;;;;;5038456;28;20018;-83
2022/03/12 02:16:56;;;;;;;18.65;9.10;;;1.40;82.40;;;;;;5010356;28;20038;-84
2022/03/12 02:19:25;;;;;;;26.58;9.77;;;1.40;82.30;;;;;;5024448;28;20135;-84
2022/03/12 02:22:10;;;;;;;18.00;9.02;;;1.40;82.20;;;;;;5008854;28;20029;-84
2022/03/12 02:24:37;;;;;;;18.30;9.32;;;1.40;82.80;;;;;;5047392;28;20037;-83
2022/03/12 02:27:05;;;;;;;21.88;9.68;;;1.40;82.40;;;;;;5012048;28;20026;-84
2022/03/12 02:29:32;;;;;;;17.92;9.10;;;1.50;82.50;;;;;;5028353;28;20060;-84
2022/03/12 02:32:03;;;;;;;17.63;8.85;;;1.50;82.70;;;;;;5028664;28;20034;-83
2022/03/12 02:34:32;;;;;;;;;;;1.50;82.40;;;;;;4994604;28;20057;-84
2022/03/12 02:36:58;;;;;;;21.08;9.85;;;1.50;82.60;;;;;;4992870;28;19931;-85
2022/03/12 02:39:27;;;;;;;16.92;8.55;;;1.50;82.80;;;;;;4993582;28;20029;-85
2022/03/12 02:42:00;;;;;;;19.38;8.73;;;1.50;82.50;;;;;;4976643;28;20060;-84
2022/03/12 02:44:28;;;;;;;17.52;8.70;;;1.50;82.30;;;;;;5023163;28;20505;-85
2022/03/12 02:47:14;;;;;;;21.25;9.73;;;1.50;82.50;;;;;;5028171;28;20060;-83
2022/03/12 02:49:53;;;;;;;19.17;9.70;;;1.50;82.50;;;;;;5007923;28;20041;-84
2022/03/12 02:52:20;;;;;;;20.73;9.43;;;1.50;83.30;;;;;;4999683;28;20047;-83
2022/03/12 02:54:48;;;;;;;17.90;9.05;;;1.50;83.00;;;;;;5040960;28;20044;-83
2022/03/12 02:57:14;;;;;;;17.83;8.73;;;1.50;83.10;;;;;;4981818;28;20443;-84
2022/03/12 02:59:43;;;;;;;18.90;9.30;;;1.50;83.20;;;;;;5011013;28;20471;-83
2022/03/12 03:02:12;;;;;;;16.77;8.98;;;1.50;83.40;;;;;;5010668;28;20045;-83
2022/03/12 03:04:40;;;;;;;22.30;9.45;;;1.50;83.50;;;;;;4994471;28;20042;-85
2022/03/12 03:07:11;;;;;;;25.85;9.15;;;1.50;83.30;;;;;;5010275;28;20495;-83
2022/03/12 03:09:38;;;;;;;18.17;10.37;;;1.50;83.20;;;;;;4992874;28;20375;-84
2022/03/12 03:12:08;;;;;;;28.65;10.43;;;1.50;83.40;;;;;;4992822;28;20308;-84
2022/03/12 03:14:35;;;;;;;24.75;9.63;;;1.50;83.10;;;;;;4994146;28;20088;-84
2022/03/12 03:17:01;;;;;;;18.75;9.38;;;1.50;83.70;;;;;;5024397;28;20113;-84
2022/03/12 03:19:27;;;;;;;22.10;8.93;;;1.50;83.50;;;;;;5006934;28;20153;-83
2022/03/12 03:21:54;;;;;;;21.85;9.82;;;1.50;83.80;;;;;;4997577;28;20109;-84
2022/03/12 03:24:21;;;;;;;16.02;8.98;;;1.50;83.00;;;;;;5015086;28;20026;-83
2022/03/12 03:26:47;;;;;;;18.02;8.88;;;1.50;83.70;;;;;;5018910;28;20025;-81
2022/03/12 03:29:13;;;;;;;19.10;9.20;;;1.40;83.30;;;;;;5012685;28;20490;-83
2022/03/12 03:31:41;;;;;;;21.48;9.43;;;1.50;83.60;;;;;;4980269;28;20041;-84
2022/03/12 03:34:07;;;;;;;20.13;10.00;;;1.40;84.20;;;;;;5009599;28;20517;-83
2022/03/12 03:36:34;;;;;;;23.98;11.07;;;1.40;84.40;;;;;;5009533;28;20144;-84
2022/03/12 03:39:00;;;;;;;20.25;9.55;;;1.40;84.40;;;;;;5013007;28;20029;-84
2022/03/12 03:41:25;;;;;;;16.70;9.13;;;1.40;84.70;;;;;;5013971;28;20064;-84
2022/03/12 03:43:52;;;;;;;18.08;9.38;;;1.40;84.50;;;;;;4992921;28;20479;-83
2022/03/12 03:46:23;;;;;;;22.17;9.07;;;1.50;84.90;;;;;;4992998;28;20037;-83
2022/03/12 03:48:51;;;;;;;22.02;9.65;;;1.40;84.70;;;;;;5011746;28;20030;-84
2022/03/12 03:51:18;;;;;;;20.20;9.65;;;1.50;84.70;;;;;;5012055;28;20026;-83
2022/03/12 03:53:44;;;;;;;23.92;10.15;;;1.40;85.10;;;;;;5011805;28;20052;-84
2022/03/12 03:56:09;;;;;;;19.83;9.43;;;1.50;84.60;;;;;;5011538;28;20117;-83
2022/03/12 03:58:36;;;;;;;18.25;9.20;;;1.40;84.40;;;;;;4983055;28;20038;-85
2022/03/12 04:01:12;;;;;;;20.73;9.65;;;1.40;85.20;;;;;;5027143;28;20041;-85
2022/03/12 04:03:42;;;;;;;20.67;10.55;;;1.40;85.30;;;;;;4978820;28;20033;-84
2022/03/12 04:06:08;;;;;;;18.98;9.45;;;1.30;85.80;;;;;;5008104;28;20116;-83
2022/03/12 04:08:35;;;;;;;16.33;9.77;;;1.30;86.00;;;;;;5007904;28;20041;-84
2022/03/12 04:11:04;;;;;;;17.20;8.88;;;1.30;85.90;;;;;;4992760;28;20034;-85
2022/03/12 04:13:31;;;;;;;20.33;9.70;;;1.20;86.30;;;;;;4992920;28;20041;-83
2022/03/12 04:15:59;;;;;;;18.67;9.75;;;1.10;86.50;;;;;;4996427;28;20366;-83
2022/03/12 04:18:25;;;;;;;19.02;10.30;;;1.10;87.10;;;;;;5012117;28;20064;-83
2022/03/12 04:20:51;;;;;;;22.60;9.45;;;1.10;87.70;;;;;;4995639;28;20158;-83
2022/03/12 04:23:21;;;;;;;20.88;10.27;;;1.00;88.10;;;;;;5027942;28;20073;-85
2022/03/12 04:25:52;;;;;;;22.35;9.30;;;1.00;88.10;;;;;;4991404;28;20029;-84
2022/03/12 04:28:19;;;;;;;;;;;0.90;88.70;;;;;;5030237;28;20049;-84
2022/03/12 04:30:45;;;;;;;21.58;10.00;;;0.80;88.60;;;;;;5015784;28;19960;-84
2022/03/12 04:33:17;;;;;;;19.65;10.27;;;0.80;89.40;;;;;;5015594;28;20387;-84
2022/03/12 04:35:43;;;;;;;19.83;9.30;;;0.70;90.00;;;;;;5015149;28;20030;-84
2022/03/12 04:38:09;;;;;;;21.05;11.13;;;0.60;90.20;;;;;;5033906;28;20358;-83
2022/03/12 04:40:39;;;;;;;17.73;9.20;;;0.50;90.30;;;;;;5017316;28;20048;-84
2022/03/12 04:43:06;;;;;;;19.77;9.52;;;0.40;90.60;;;;;;5034325;28;20069;-84
2022/03/12 04:45:32;;;;;;;26.08;9.70;;;0.30;90.80;;;;;;5017347;28;20040;-83
2022/03/12 04:47:58;;;;;;;17.88;9.48;;;0.20;91.10;;;;;;5016914;28;20112;-84
2022/03/12 04:50:24;;;;;;;22.17;10.00;;;0.10;91.60;;;;;;5007902;28;20173;-84
2022/03/12 04:52:52;;;;;;;20.33;9.90;;;0.10;91.90;;;;;;4998942;28;20033;-84
2022/03/12 04:55:21;;;;;;;36.60;10.35;;;0.10;91.90;;;;;;5016667;28;20154;-83
2022/03/12 04:57:48;;;;;;;21.75;9.95;;;0.10;92.10;;;;;;4998202;28;20057;-83
2022/03/12 05:00:18;;;;;;;26.65;12.52;;;0.00;91.90;;;;;;4998438;28;20133;-83
2022/03/12 05:02:47;;;;;;;22.70;10.65;;;-0.10;92.40;;;;;;5003537;28;20050;-84
2022/03/12 05:05:15;;;;;;;19.25;9.68;;;-0.10;92.50;;;;;;5014923;28;20038;-84
2022/03/12 05:07:45;;;;;;;17.15;9.38;;;-0.20;92.80;;;;;;4999214;28;20120;-83
2022/03/12 05:10:18;;;;;;;20.00;9.68;;;-0.20;93.10;;;;;;5000742;28;20037;-85
2022/03/12 05:12:48;;;;;;;20.35;10.38;;;-0.20;93.20;;;;;;5031670;28;20029;-84
2022/03/12 05:15:15;;;;;;;16.88;9.85;;;-0.30;93.60;;;;;;5057546;28;20033;-83
2022/03/12 05:17:43;;;;;;;25.13;12.35;;;-0.30;94.10;;;;;;5040278;28;20041;-83
2022/03/12 05:20:11;;;;;;;18.98;10.52;;;-0.30;94.10;;;;;;5016767;28;20069;-82
2022/03/12 05:22:36;;;;;;;25.70;10.90;;;-0.30;94.20;;;;;;5016237;28;20061;-84
2022/03/12 05:25:03;;;;;;;24.48;9.88;;;-0.40;94.60;;;;;;5016450;28;20040;-83
2022/03/12 05:27:29;;;;;;;18.48;9.68;;;-0.50;95.10;;;;;;4982277;28;20029;-84
2022/03/12 05:29:55;;;;;;;20.55;10.15;;;-0.60;95.30;;;;;;5014267;28;20113;-83
2022/03/12 05:32:21;;;;;;;24.02;10.15;;;-0.60;95.40;;;;;;5014826;28;20045;-83
2022/03/12 05:34:47;;;;;;;20.90;10.73;;;-0.60;95.40;;;;;;5012148;28;20030;-84
2022/03/12 05:37:13;;;;;;;23.27;10.52;;;-0.70;95.90;;;;;;5011051;28;20040;-83
2022/03/12 05:39:38;;;;;;;18.48;9.75;;;-0.80;96.70;;;;;;5010631;28;20048;-84
2022/03/12 05:42:05;;;;;;;28.77;9.90;;;-0.80;97.10;;;;;;5011026;28;20075;-83
2022/03/12 05:44:36;;;;;;;24.95;10.57;;;-0.80;97.20;;;;;;4995382;28;20030;-83
2022/03/12 05:47:09;;;;;;;20.23;10.43;;;-0.80;97.20;;;;;;5010919;28;20076;-84
2022/03/12 05:49:35;;;;;;;26.65;9.45;;;-0.70;97.00;;;;;;5001845;28;20038;-85
2022/03/12 05:52:00;;;;;;;21.27;9.50;;;-0.70;97.00;;;;;;4997396;28;20034;-85
2022/03/12 05:54:26;;;;;;;20.17;9.40;;;-0.60;97.00;;;;;;4994575;28;20033;-82
2022/03/12 05:56:52;;;;;;;21.50;9.35;;;-0.60;97.30;;;;;;5028985;28;20026;-85
2022/03/12 05:59:18;;;;;;;21.13;10.35;;;-0.50;97.60;;;;;;5013537;28;20037;-83
2022/03/12 06:01:45;;;;;;;21.67;9.13;;;-0.40;97.20;;;;;;5013381;28;20045;-84
2022/03/12 06:04:12;;;;;;;23.80;10.40;;;-0.50;97.30;;;;;;5013558;28;20141;-84
2022/03/12 06:06:45;;;;;;;19.85;9.18;;;-0.50;97.00;;;;;;5013497;28;20484;-84
2022/03/12 06:09:12;;;;;;;24.08;9.35;;;-0.40;97.10;;;;;;5030416;28;20041;-84
2022/03/12 06:11:38;;;;;;;25.15;10.18;;;-0.40;97.70;;;;;;4980269;28;20037;-84
2022/03/12 06:14:04;;;;;;;23.95;9.90;;;-0.40;97.40;;;;;;5010099;28;20500;-84
2022/03/12 06:16:31;;;;;;;17.45;9.43;;;-0.40;97.50;;;;;;5010604;28;20029;-83
2022/03/12 06:18:58;;;;;;;27.33;9.65;;;-0.40;97.60;;;;;;5030631;28;20029;-85
2022/03/12 06:21:24;;;;;;;16.67;9.25;;;-0.40;97.70;;;;;;5012694;28;20041;-83
2022/03/12 06:23:51;;;;;;;19.08;9.38;;;-0.30;97.90;;;;;;5012935;28;20649;-85
2022/03/12 06:26:17;;;;;;;20.33;9.60;;;-0.20;97.80;;;;;;4983762;28;20033;-84
2022/03/12 06:28:44;;;;;;;21.27;10.00;;;-0.20;97.60;;;;;;5030093;28;20050;-84
2022/03/12 06:31:14;;;;;;;23.23;10.52;;;-0.10;97.60;;;;;;5028688;28;20041;-84
2022/03/12 06:33:42;;;;;;;19.63;10.27;;;-0.10;97.90;;;;;;5012695;28;20060;-84
2022/03/12 06:36:08;;;;;;;21.10;10.48;;;0.00;97.80;;;;;;5012132;28;20565;-84
2022/03/12 06:38:37;;;;;;;26.85;10.13;;;0.10;97.80;;;;;;5012303;28;20040;-83
2022/03/12 06:41:03;;;;;;;23.30;9.88;;;0.10;97.80;;;;;;5010352;28;20096;-83
2022/03/12 06:43:30;;;;;;;21.67;9.95;;;0.20;98.20;;;;;;5004883;28;20037;-84
2022/03/12 06:45:58;;;;;;;22.73;9.35;;;0.30;97.70;;;;;;5008682;28;20107;-83
2022/03/12 06:48:25;;;;;;;21.63;9.65;;;0.40;97.40;;;;;;5007756;28;20029;-83
2022/03/12 06:50:52;;;;;;;27.05;10.80;;;0.50;96.30;;;;;;4994443;28;20029;-83
2022/03/12 06:53:18;;;;;;;31.00;14.23;;;0.60;95.30;;;;;;5000502;28;20419;-86
2022/03/12 06:55:44;;;;;;;20.38;9.65;;;0.70;94.30;;;;;;5014856;28;20488;-84
2022/03/12 06:58:11;;;;;;;18.92;9.35;;;0.90;93.80;;;;;;5006499;28;20033;-85
2022/03/12 07:00:37;;;;;;;21.77;10.15;;;1.00;93.70;;;;;;5007092;28;20055;-84
2022/03/12 07:03:03;;;;;;;20.58;9.88;;;1.00;94.00;;;;;;5006548;28;20025;-84
2022/03/12 07:05:29;;;;;;;20.42;9.63;;;1.10;93.50;;;;;;5022375;28;20121;-84
2022/03/12 07:07:55;;;;;;;19.35;9.52;;;1.30;93.20;;;;;;5011929;28;20092;-85
2022/03/12 07:10:22;;;;;;;22.38;9.80;;;1.40;92.40;;;;;;5003591;28;20438;-83
2022/03/12 07:12:48;;;;;;;18.73;9.55;;;1.50;92.50;;;;;;4991765;28;20359;-85
2022/03/12 07:15:15;;;;;;;27.90;9.90;;;1.60;92.30;;;;;;4995394;28;20116;-84
2022/03/12 07:17:42;;;;;;;18.60;9.15;;;1.60;91.70;;;;;;5009920;28;20126;-85
2022/03/12 07:20:10;;;;;;;19.02;9.75;;;1.70;91.40;;;;;;4995861;28;20033;-88
2022/03/12 07:22:36;;;;;;;18.38;9.77;;;1.80;92.00;;;;;;5008721;28;20618;-82
2022/03/12 07:25:02;;;;;;;20.13;9.27;;;2.00;91.70;;;;;;5008620;28;20128;-83
2022/03/12 07:27:29;;;;;;;26.67;11.07;;;2.00;91.10;;;;;;5024609;28;20140;-84
2022/03/12 07:30:00;;;;;;;23.42;10.02;;;2.10;91.00;;;;;;5018297;28;20383;-82
2022/03/12 07:32:29;;;;;;;19.23;9.55;;;2.20;91.40;;;;;;5024725;28;20068;-84
2022/03/12 07:34:54;;;;;;;25.63;10.25;;;2.20;91.30;;;;;;4989866;28;20030;-81
2022/03/12 07:37:21;;;;;;;25.00;9.82;;;2.30;90.60;;;;;;5007663;28;20116;-83
2022/03/12 07:39:49;;;;;;;21.90;11.10;;;2.40;90.90;;;;;;5008280;28;20108;-82
2022/03/12 07:42:15;;;;;;;19.50;9.70;;;2.50;90.70;;;;;;4987532;28;20096;-82
2022/03/12 07:44:41;;;;;;;27.85;10.95;;;2.60;90.20;;;;;;4998813;28;20498;-82
2022/03/12 07:47:08;;;;;;;18.52;10.02;;;2.70;90.60;;;;;;5011046;28;20092;-84
2022/03/12 07:49:34;;;;;;;19.00;10.10;;;2.80;90.10;;;;;;5025738;28;20041;-84
2022/03/12 07:52:01;;;;;;;21.38;10.05;;;3.00;90.10;;;;;;4995117;28;20033;-84
2022/03/12 07:54:30;;;;;;;20.65;10.75;;;3.00;90.00;;;;;;5021108;28;20072;-82
2022/03/12 07:56:55;;;;;;;27.58;10.38;;;3.10;87.40;;;;;;5007921;28;20053;-83
2022/03/12 07:59:21;;;;;;;17.30;9.57;;;3.20;88.10;;;;;;4989230;28;20111;-85
2022/03/12 08:01:47;;;;;;;20.55;10.68;;;3.20;89.10;;;;;;4990122;28;20453;-83
2022/03/12 08:04:14;;;;;;;21.00;10.40;;;3.20;87.60;;;;;;4994361;28;20132;-83
2022/03/12 08:06:40;;;;;;;17.88;9.70;;;3.20;88.30;;;;;;5045737;28;20025;-82
2022/03/12 08:09:06;;;;;;;27.55;13.45;;;3.30;89.10;;;;;;5033764;28;20125;-83
2022/03/12 08:11:34;;;;;;;26.90;11.70;;;3.30;88.50;;;;;;5010058;28;20080;-83
2022/03/12 08:14:03;;;;;;;25.13;12.00;;;3.50;88.60;;;;;;5010652;28;20108;-86
2022/03/12 08:16:31;;;;;;;24.63;10.98;;;3.60;88.30;;;;;;5006018;28;20033;-85
2022/03/12 08:18:58;;;;;;;23.10;11.73;;;3.70;86.90;;;;;;5025875;28;20470;-85
2022/03/12 08:21:24;;;;;;;26.02;11.63;;;3.80;85.80;;;;;;4990765;28;20177;-83
2022/03/12 08:23:50;;;;;;;21.20;10.95;;;3.90;86.00;;;;;;4991137;28;20030;-83
2022/03/12 08:26:16;;;;;;;27.92;11.68;;;4.10;87.70;;;;;;5006973;28;20044;-83
2022/03/12 08:28:42;;;;;;;21.08;10.45;;;4.30;85.80;;;;;;5010295;28;20041;-84
2022/03/12 08:31:09;;;;;;;22.77;11.35;;;4.40;85.90;;;;;;4992702;28;20037;-84
2022/03/12 08:34:00;;;;;;;21.52;10.65;;;4.50;86.00;;;;;;5002381;28;20036;-85
2022/03/12 08:36:25;;;;;;;21.17;10.97;;;4.50;84.80;;;;;;5008172;28;20125;-85
2022/03/12 08:38:53;;;;;;;23.42;11.07;;;4.60;85.90;;;;;;4982387;28;20030;-83
2022/03/12 08:41:21;;;;;;;18.95;10.52;;;4.80;86.90;;;;;;4976016;28;20490;-86
2022/03/12 08:43:48;;;;;;;34.42;11.07;;;4.90;86.30;;;;;;4996978;28;20029;-85
2022/03/12 08:46:14;;;;;;;21.60;11.85;;;5.00;85.10;;;;;;5009174;28;20025;-85
2022/03/12 08:48:40;;;;;;;23.95;11.20;;;5.20;85.60;;;;;;4997953;28;20065;-83
2022/03/12 08:51:07;;;;;;;26.17;11.43;;;5.40;85.80;;;;;;5022544;28;20052;-84
2022/03/12 08:53:34;;;;;;;25.70;12.55;;;5.60;85.10;;;;;;5013557;28;20716;-85
2022/03/12 08:56:01;;;;;;;19.30;10.98;;;5.70;85.80;;;;;;5010306;28;20462;-84
2022/03/12 08:58:29;;;;;;;18.67;10.90;;;5.90;85.10;;;;;;5011742;28;20064;-84
2022/03/12 09:00:59;;;;;;;24.55;12.15;;;6.00;84.10;;;;;;4994152;28;20133;-85
2022/03/12 09:03:25;;;;;;;25.58;12.48;;;6.10;83.40;;;;;;5026423;28;20033;-84
2022/03/12 09:05:51;;;;;;;20.02;11.40;;;6.30;84.30;;;;;;5010065;28;20035;-85
2022/03/12 09:08:17;;;;;;;22.45;11.52;;;6.70;84.20;;;;;;5010764;28;20477;-84
2022/03/12 09:10:44;;;;;;;25.95;11.57;;;7.20;82.20;;;;;;5006609;28;20125;-84
2022/03/12 09:13:12;;;;;;;19.23;11.30;;;7.80;80.30;;;;;;4995663;28;20040;-84
2022/03/12 09:15:39;;;;;;;21.85;12.45;;;8.50;78.50;;;;;;4995440;28;20121;-84
2022/03/12 09:18:05;;;;;;;22.15;12.20;;;8.90;77.20;;;;;;4995231;28;20402;-84
2022/03/12 09:20:39;;;;;;;22.65;11.05;;;9.40;75.70;;;;;;5012500;28;20037;-84
2022/03/12 09:23:05;;;;;;;22.50;12.30;;;9.90;75.20;;;;;;4994678;28;20545;-84
2022/03/12 09:25:31;;;;;;;23.75;12.43;;;10.20;74.20;;;;;;5005977;28;20048;-84
2022/03/12 09:27:57;;;;;;;19.17;12.07;;;10.20;72.40;;;;;;4998036;28;20033;-85
2022/03/12 09:30:22;;;;;;;17.38;11.65;;;9.90;71.10;;;;;;5034882;28;20029;-85
2022/03/12 09:32:48;;;;;;;23.50;11.82;;;10.20;72.70;;;;;;5039393;28;20026;-84
2022/03/12 09:35:14;;;;;;;19.33;11.88;;;10.40;71.80;;;;;;5017503;28;20052;-84
2022/03/12 09:37:41;;;;;;;21.05;11.90;;;10.70;71.30;;;;;;5016204;28;20033;-85
2022/03/12 09:40:08;;;;;;;22.95;11.43;;;10.90;70.20;;;;;;5017603;28;20049;-84
2022/03/12 09:42:34;;;;;;;19.20;11.70;;;11.40;69.10;;;;;;4995661;28;20046;-84
2022/03/12 09:45:05;;;;;;;17.58;11.68;;;11.90;66.40;;;;;;5014768;28;20033;-83
2022/03/12 09:47:31;;;;;;;18.17;12.02;;;12.00;65.90;;;;;;4995452;28;20038;-84
2022/03/12 09:49:57;;;;;;;17.52;10.90;;;12.30;65.40;;;;;;4995300;28;20466;-83
2022/03/12 09:52:22;;;;;;;19.73;11.38;;;12.60;64.80;;;;;;4979545;28;20506;-83
2022/03/12 09:54:49;;;;;;;19.08;12.13;;;13.20;64.30;;;;;;4995518;28;20033;-83
2022/03/12 09:57:16;;;;;;;22.90;11.93;;;13.50;62.30;;;;;;4995299;28;20033;-83
2022/03/12 09:59:42;;;;;;;17.92;11.45;;;13.50;61.40;;;;;;5010190;28;20029;-84
2022/03/12 10:02:10;;;;;;;21.80;11.18;;;13.20;61.10;;;;;;5009846;28;20025;-84
2022/03/12 10:04:36;;;;;;;22.25;10.75;;;13.20;60.30;;;;;;4993215;28;20028;-85
2022/03/12 10:07:02;;;;;;;19.13;11.43;;;13.70;60.90;;;;;;5005098;28;20151;-84
2022/03/12 10:09:28;;;;;;;24.00;10.75;;;13.60;59.00;;;;;;5009054;28;20104;-83
2022/03/12 10:11:54;;;;;;;17.90;11.13;;;13.40;59.00;;;;;;4997711;28;20033;-82
2022/03/12 10:14:20;;;;;;;16.17;10.75;;;13.20;59.20;;;;;;5008548;28;20021;-83
2022/03/12 10:16:46;;;;;;;18.70;11.05;;;13.20;60.20;;;;;;5026739;28;20602;-83
2022/03/12 10:19:12;;;;;;;16.38;11.10;;;13.60;59.80;;;;;;5026450;28;20026;-84
2022/03/12 10:21:42;;;;;;;17.27;11.25;;;13.30;59.40;;;;;;5007639;28;20037;-84
2022/03/12 10:24:14;;;;;;;16.95;11.10;;;13.40;59.90;;;;;;5010749;28;20615;-84
2022/03/12 10:26:42;;;;;;;30.50;12.93;;;13.90;59.90;;;;;;5007732;28;20163;-83
2022/03/12 10:29:09;;;;;;;21.30;10.95;;;14.10;58.50;;;;;;5003708;28;20032;-83
2022/03/12 10:31:38;;;;;;;19.65;11.15;;;14.10;58.40;;;;;;5025153;28;20388;-82
2022/03/12 10:34:23;;;;;;;18.17;11.35;;;14.00;58.70;;;;;;5010248;28;20649;-84
2022/03/12 10:36:52;;;;;;;20.90;11.63;;;13.70;58.80;;;;;;5029230;28;20355;-83
2022/03/12 10:39:31;;;;;;;16.85;11.18;;;13.30;59.30;;;;;;5002964;28;20044;-83
2022/03/12 10:42:10;;;;;;;19.55;11.93;;;13.30;59.90;;;;;;4987230;28;20045;-84
2022/03/12 10:44:37;;;;;;;19.73;11.68;;;13.20;59.30;;;;;;5026838;28;20049;-83
2022/03/12 10:47:24;;;;;;;19.55;11.60;;;12.90;59.50;;;;;;5007644;28;20029;-83
2022/03/12 10:50:04;;;;;;;18.98;10.80;;;12.50;61.50;;;;;;5009466;28;20037;-85
2022/03/12 10:52:32;;;;;;;16.52;11.43;;;12.50;62.90;;;;;;4998954;28;20037;-83
2022/03/12 10:55:25;;;;;;;22.60;11.90;;;12.90;63.50;;;;;;5029688;28;20029;-82
2022/03/12 10:57:57;;;;;;;25.67;12.32;;;12.90;60.70;;;;;;5007092;28;20050;-83
2022/03/12 11:00:24;;;;;;;18.58;11.70;;;12.80;61.50;;;;;;5032135;28;20470;-84
2022/03/12 11:03:03;;;;;;;22.60;11.38;;;12.60;63.00;;;;;;5032867;28;20495;-81
2022/03/12 11:05:34;;;;;;;25.13;11.00;;;12.70;62.30;;;;;;5011204;28;20022;-85
2022/03/12 11:08:20;;;;;;;20.05;11.98;;;12.90;61.60;;;;;;4994636;28;20029;-82
2022/03/12 11:10:50;;;;;;;19.60;12.27;;;12.80;61.90;;;;;;5004854;28;20038;-85
2022/03/12 11:13:25;;;;;;;20.33;12.00;;;13.10;62.80;;;;;;5007651;28;20036;-83
2022/03/12 11:16:12;;;;;;;19.00;11.57;;;13.60;62.30;;;;;;4978159;28;20034;-84
2022/03/12 11:18:45;;;;;;;19.50;11.60;;;13.50;60.80;;;;;;5012504;28;20047;-85
2022/03/12 11:21:11;;;;;;;23.27;11.23;;;13.40;62.60;;;;;;5009355;28;20065;-86
2022/03/12 11:23:37;;;;;;;16.88;10.77;;;13.80;61.50;;;;;;5017131;28;20064;-82
2022/03/12 11:26:07;;;;;;;20.02;10.77;;;14.10;60.90;;;;;;5025670;28;20117;-84
2022/03/12 11:28:36;;;;;;;21.10;12.00;;;14.50;59.80;;;;;;5017792;28;20026;-83
2022/03/12 11:31:07;;;;;;;17.67;11.30;;;14.60;59.40;;;;;;4994381;28;20084;-84
2022/03/12 11:33:35;;;;;;;21.17;10.93;;;14.40;59.60;;;;;;5012291;28;20148;-83
2022/03/12 11:36:06;;;;;;;20.50;11.95;;;14.50;59.70;;;;;;5010584;28;20052;-83
2022/03/12 11:38:32;;;;;;;25.60;13.23;;;14.40;59.60;;;;;;4992907;28;20363;-81
2022/03/12 11:41:09;;;;;;;22.85;14.43;;;14.30;59.70;;;;;;5010631;28;20046;-85
2022/03/12 11:43:42;;;;;;;21.23;11.95;;;14.00;59.40;;;;;;4993187;28;20429;-87
2022/03/12 11:46:11;;;;;;;15.65;10.43;;;14.00;60.60;;;;;;4993614;28;20429;-83
2022/03/12 11:48:38;;;;;;;19.45;11.18;;;14.40;60.90;;;;;;5014915;28;20445;-85
2022/03/12 11:51:18;;;;;;;16.48;10.40;;;14.60;61.80;;;;;;5006539;28;20069;-82
2022/03/12 11:53:45;;;;;;;16.88;11.10;;;15.20;61.20;;;;;;5005629;28;20072;-84
2022/03/12 11:56:13;;;;;;;15.38;10.57;;;15.70;60.00;;;;;;5011452;28;20037;-83
2022/03/12 11:58:39;;;;;;;20.33;11.25;;;16.00;60.60;;;;;;5008812;28;20547;-84
2022/03/12 12:01:05;;;;;;;15.45;10.57;;;16.20;58.60;;;;;;5004532;28;20091;-84
2022/03/12 12:03:31;;;;;;;21.13;11.20;;;16.40;58.80;;;;;;4988805;28;20036;-84
2022/03/12 12:05:57;;;;;;;19.17;10.70;;;16.70;59.80;;;;;;5005183;28;20554;-83
2022/03/12 12:08:24;;;;;;;17.33;11.02;;;17.30;58.60;;;;;;5015015;28;20095;-84
2022/03/12 12:10:52;;;;;;;24.92;12.45;;;17.20;57.20;;;;;;5005418;28;20410;-83
2022/03/12 12:13:18;;;;;;;19.38;10.88;;;17.20;57.50;;;;;;5009536;28;20087;-83
2022/03/12 12:15:45;;;;;;;16.13;10.27;;;16.90;58.00;;;;;;5000101;28;20438;-83
2022/03/12 12:18:15;;;;;;;16.90;11.38;;;17.10;56.50;;;;;;5006200;28;20044;-85
2022/03/12 12:20:43;;;;;;;16.13;10.88;;;17.10;57.00;;;;;;5009472;28;20034;-85
2022/03/12 12:23:19;;;;;;;18.40;10.90;;;16.50;57.40;;;;;;5000938;28;20036;-85
2022/03/12 12:25:49;;;;;;;21.42;12.13;;;16.10;59.00;;;;;;5025761;28;20107;-83
2022/03/12 12:28:24;;;;;;;19.73;11.23;;;15.50;60.20;;;;;;5024336;28;20085;-84
2022/03/12 12:30:53;;;;;;;16.55;10.25;;;15.70;59.80;;;;;;4986231;28;20040;-84
2022/03/12 12:33:20;;;;;;;18.40;11.02;;;15.70;60.50;;;;;;5022504;28;20026;-83
2022/03/12 12:35:48;;;;;;;15.45;9.55;;;16.00;60.30;;;;;;5006501;28;20041;-81
2022/03/12 12:38:18;;;;;;;18.42;10.88;;;15.90;59.20;;;;;;5009703;28;20466;-85
2022/03/12 12:40:50;;;;;;;19.70;12.57;;;16.00;59.80;;;;;;5006034;28;20029;-83
2022/03/12 12:43:32;;;;;;;19.98;11.40;;;15.50;58.40;;;;;;5006220;28;20041;-82